Time;durP1;ratioP1;P1;durP2;ratioP2;P2;SDS_P1;SDS_P2;PMS_P1;PMS_P2;Temp;Humidity;BMP_temperature;BMP_pressure;BME280_temperature;BME280_humidity;BME280_pressure;Samples;Min_cycle;Max_cycle;Signal;HPM_P1;HPM_P2
2023/01/28 00:01:50;;;;;;;13.00;11.63;;;;;;;5.30;62.35;102816.31;5049574;28;20499;-67
2023/01/28 00:04:17;;;;;;;12.57;11.27;;;;;;;5.32;62.55;102817.88;5048840;28;20029;-67
2023/01/28 00:06:42;;;;;;;12.80;11.50;;;;;;;5.31;62.22;102812.56;5049769;28;20404;-67
2023/01/28 00:09:08;;;;;;;13.40;12.00;;;;;;;5.32;62.96;102817.03;5044060;28;20029;-67
2023/01/28 00:11:33;;;;;;;12.27;10.98;;;;;;;5.32;62.19;102815.13;5045505;28;20052;-67
2023/01/28 00:13:59;;;;;;;12.60;11.30;;;;;;;5.31;62.17;102823.56;5041291;28;20091;-67
2023/01/28 00:16:26;;;;;;;11.95;10.75;;;;;;;5.28;62.11;102818.41;5050976;28;20028;-67
2023/01/28 00:18:52;;;;;;;12.02;10.80;;;;;;;5.24;61.63;102817.03;5054016;28;20028;-67
2023/01/28 00:21:17;;;;;;;13.45;10.95;;;;;;;5.23;61.79;102823.56;5053773;28;20479;-67
2023/01/28 00:23:49;;;;;;;13.68;11.88;;;;;;;5.23;62.40;102820.81;5049501;28;20096;-67
2023/01/28 00:26:14;;;;;;;13.80;12.05;;;;;;;5.23;62.61;102832.69;5052922;28;20041;-67
2023/01/28 00:28:41;;;;;;;13.88;11.88;;;;;;;5.22;62.28;102825.44;5052743;28;20037;-67
2023/01/28 00:31:18;;;;;;;13.77;11.27;;;;;;;5.24;62.54;102822.53;5048030;28;20071;-67
2023/01/28 00:33:45;;;;;;;14.80;11.95;;;;;;;5.20;62.45;102827.50;5052539;28;20479;-67
2023/01/28 00:36:11;;;;;;;12.80;11.50;;;;;;;5.23;62.58;102831.84;5045554;28;20047;-67
2023/01/28 00:38:37;;;;;;;13.40;11.82;;;;;;;5.22;62.90;102841.09;5048728;28;20080;-67
2023/01/28 00:41:11;;;;;;;13.18;11.85;;;;;;;5.23;62.64;102838.19;5049838;28;20060;-68
2023/01/28 00:43:37;;;;;;;13.80;12.00;;;;;;;5.23;62.26;102838.19;5051796;28;20056;-67
2023/01/28 00:46:06;;;;;;;12.35;10.88;;;;;;;5.22;61.59;102847.47;5045314;28;20041;-67
2023/01/28 00:48:31;;;;;;;12.40;11.07;;;;;;;5.24;61.42;102844.56;5032176;28;20030;-67
2023/01/28 00:50:57;;;;;;;12.90;11.50;;;;;;;5.22;61.01;102836.44;5045583;28;20033;-67
2023/01/28 00:53:22;;;;;;;13.88;12.07;;;;;;;5.23;61.07;102840.94;5048668;28;20032;-67
2023/01/28 00:55:48;;;;;;;13.43;11.80;;;;;;;5.22;61.59;102843.84;5051682;28;20044;-67
2023/01/28 00:58:13;;;;;;;13.40;11.57;;;;;;;5.21;61.56;102834.72;5053198;28;20108;-67
2023/01/28 01:00:38;;;;;;;13.77;11.68;;;;;;;5.18;61.13;102844.19;5049916;28;20021;-67
2023/01/28 01:03:04;;;;;;;15.00;12.07;;;;;;;5.18;61.40;102840.56;5047347;28;20484;-67
2023/01/28 01:05:29;;;;;;;12.63;11.05;;;;;;;5.17;61.99;102847.97;5051095;28;20570;-67
2023/01/28 01:07:54;;;;;;;13.82;12.00;;;;;;;5.15;61.21;102849.19;5043877;28;20501;-67
2023/01/28 01:10:20;;;;;;;12.80;11.35;;;;;;;5.15;61.70;102847.28;5032540;28;20064;-67
2023/01/28 01:12:47;;;;;;;13.05;11.20;;;;;;;5.15;61.78;102850.06;5033837;28;20029;-67
2023/01/28 01:15:13;;;;;;;12.32;11.02;;;;;;;5.12;61.39;102842.13;5037783;28;20023;-67
2023/01/28 01:17:40;;;;;;;13.25;11.90;;;;;;;5.13;61.56;102842.97;5051338;28;20403;-67
2023/01/28 01:20:12;;;;;;;12.23;10.88;;;;;;;5.12;62.31;102847.63;5051853;28;20040;-67
2023/01/28 01:22:37;;;;;;;13.18;11.77;;;;;;;5.18;61.67;102851.59;5032073;28;20021;-67
2023/01/28 01:25:04;;;;;;;12.55;10.95;;;;;;;5.14;61.28;102847.44;5045331;28;20032;-67
2023/01/28 01:27:31;;;;;;;13.55;11.73;;;;;;;5.15;60.87;102846.44;5050695;28;20051;-67
2023/01/28 01:29:57;;;;;;;13.55;12.10;;;;;;;5.17;61.11;102844.34;5051760;28;20035;-67
2023/01/28 01:32:23;;;;;;;13.18;11.48;;;;;;;5.12;61.19;102838.50;5052158;28;20060;-67
2023/01/28 01:34:49;;;;;;;13.63;11.98;;;;;;;5.13;60.94;102837.47;5049885;28;20056;-67
2023/01/28 01:37:14;;;;;;;12.35;10.65;;;;;;;5.15;61.20;102832.69;5050886;28;20048;-67
2023/01/28 01:39:39;;;;;;;13.63;11.43;;;;;;;5.14;60.89;102830.94;5051595;28;20033;-67
2023/01/28 01:42:05;;;;;;;12.70;11.30;;;;;;;5.14;61.05;102834.53;5042159;28;20036;-67
2023/01/28 01:44:58;;;;;;;14.88;12.48;;;;;;;5.14;61.50;102839.19;5046829;28;20112;-67
2023/01/28 01:47:33;;;;;;;13.70;12.20;;;;;;;5.08;60.96;102843.50;5048740;28;20037;-67
2023/01/28 01:50:03;;;;;;;13.50;11.88;;;;;;;5.10;61.33;102848.81;5051639;28;20103;-67
2023/01/28 01:52:32;;;;;;;13.52;12.10;;;;;;;5.09;61.15;102847.94;5049580;28;20037;-67
2023/01/28 01:55:00;;;;;;;13.82;11.70;;;;;;;5.09;60.81;102847.94;5051863;28;20029;-67
2023/01/28 01:57:29;;;;;;;16.23;12.55;;;;;;;5.08;61.35;102849.00;5052040;28;20491;-67
2023/01/28 02:00:04;;;;;;;15.98;13.13;;;;;;;5.10;61.39;102846.06;5044538;28;20123;-67
2023/01/28 02:02:29;;;;;;;15.00;12.95;;;;;;;5.10;61.07;102844.16;5046133;28;20067;-67
2023/01/28 02:04:54;;;;;;;13.73;11.68;;;;;;;5.12;60.09;102841.25;5050071;28;20064;-67
2023/01/28 02:07:20;;;;;;;13.75;11.98;;;;;;;5.09;60.43;102847.94;5051472;28;20025;-67
2023/01/28 02:09:45;;;;;;;14.25;11.93;;;;;;;5.09;60.87;102849.84;5042462;28;20045;-67
2023/01/28 02:12:23;;;;;;;14.68;12.57;;;;;;;5.12;60.37;102839.38;5047105;28;20044;-67
2023/01/28 02:15:00;;;;;;;14.85;12.55;;;;;;;5.13;61.01;102849.34;5034266;28;20052;-67
2023/01/28 02:17:26;;;;;;;14.77;13.05;;;;;;;5.09;60.73;102853.47;5045010;28;20029;-67
2023/01/28 02:20:00;;;;;;;14.68;12.73;;;;;;;5.10;60.63;102863.44;5043803;28;20025;-67
2023/01/28 02:22:41;;;;;;;13.73;12.13;;;;;;;5.08;60.24;102854.50;5051881;28;20032;-67
2023/01/28 02:25:47;;;;;;;14.07;12.00;;;;;;;5.10;60.79;102860.69;5052282;28;20064;-67
2023/01/28 02:28:34;;;;;;;14.75;12.73;;;;;;;5.07;60.50;102846.38;5046269;28;20115;-67
2023/01/28 02:31:38;;;;;;;12.77;11.38;;;;;;;5.10;60.54;102846.91;5049393;28;20040;-67
2023/01/28 02:34:27;;;;;;;14.60;12.55;;;;;;;5.05;60.18;102845.72;5037786;28;20032;-68
2023/01/28 02:37:10;;;;;;;14.13;12.02;;;;;;;5.08;60.33;102854.50;5043371;28;20368;-67
2023/01/28 02:39:41;;;;;;;13.75;12.00;;;;;;;5.02;59.74;102849.66;5047568;28;20104;-68
2023/01/28 02:42:13;;;;;;;15.38;12.20;;;;;;;5.05;60.67;102841.06;5031108;28;20025;-68
2023/01/28 02:44:38;;;;;;;15.23;12.30;;;;;;;5.05;60.26;102846.56;5048692;28;20552;-67
2023/01/28 02:50:00;;;;;;;13.23;11.10;;;;;;;5.01;59.99;102839.69;5047475;28;20136;-67
2023/01/28 02:55:42;;;;;;;15.02;11.82;;;;;;;5.05;61.12;102848.47;5044020;28;20396;-68
2023/01/28 02:58:17;;;;;;;13.65;11.32;;;;;;;4.99;60.79;102861.03;5050387;28;20063;-67
2023/01/28 03:00:54;;;;;;;13.82;12.32;;;;;;;4.99;60.95;102860.13;5045412;28;20063;-68
2023/01/28 03:03:24;;;;;;;15.40;12.45;;;;;;;4.95;61.03;102851.34;5030931;28;20025;-67
2023/01/28 03:06:05;;;;;;;13.68;11.80;;;;;;;4.97;61.18;102857.56;5048763;28;20033;-68
2023/01/28 03:36:49;;;;;;;13.45;10.63;;;;;;;4.88;59.42;102862.19;5048029;28;20134;-67
2023/01/28 03:39:26;;;;;;;12.32;11.00;;;;;;;4.88;59.52;102872.31;5038098;28;20132;-67
2023/01/28 03:42:04;;;;;;;11.85;10.65;;;;;;;4.88;59.18;102861.31;5035916;28;20175;-68
2023/01/28 03:44:49;;;;;;;11.60;9.65;;;;;;;4.86;58.92;102860.59;5047815;28;20041;-67
2023/01/28 03:47:14;;;;;;;11.88;10.57;;;;;;;4.85;59.21;102867.16;5048544;28;20635;-67
2023/01/28 03:49:50;;;;;;;11.48;10.27;;;;;;;4.86;59.16;102866.09;5048208;28;20029;-67
2023/01/28 03:52:21;;;;;;;11.90;9.82;;;;;;;4.86;59.23;102861.47;5048979;28;20090;-67
2023/01/28 03:54:47;;;;;;;11.30;10.10;;;;;;;4.85;58.95;102862.50;5047823;28;20128;-67
2023/01/28 03:57:14;;;;;;;11.77;10.57;;;;;;;4.85;59.15;102861.66;5049483;28;20048;-67
2023/01/28 03:59:40;;;;;;;11.63;10.43;;;;;;;4.85;59.02;102867.16;5043401;28;20078;-67
2023/01/28 04:02:06;;;;;;;11.45;10.35;;;;;;;4.85;59.52;102869.91;5049005;28;20036;-67
2023/01/28 04:04:31;;;;;;;12.35;11.05;;;;;;;4.89;60.31;102877.66;5047372;28;20061;-67
2023/01/28 04:06:57;;;;;;;12.75;11.38;;;;;;;4.88;60.72;102880.56;5047789;28;20021;-67
2023/01/28 04:09:23;;;;;;;12.38;11.07;;;;;;;4.84;60.79;102881.94;5049463;28;20368;-67
2023/01/28 04:11:49;;;;;;;13.48;12.07;;;;;;;4.85;60.82;102890.00;5049432;28;20479;-67
2023/01/28 04:14:15;;;;;;;13.65;12.25;;;;;;;4.83;60.78;102885.69;5048129;28;20040;-67
2023/01/28 04:16:41;;;;;;;13.60;11.77;;;;;;;4.84;61.26;102885.56;5045335;28;20119;-67
2023/01/28 04:19:07;;;;;;;14.05;12.65;;;;;;;4.84;61.33;102887.44;5032590;28;20034;-67
2023/01/28 04:21:33;;;;;;;14.20;11.88;;;;;;;4.82;61.42;102890.34;5029495;28;20080;-67
2023/01/28 04:23:58;;;;;;;14.38;12.88;;;;;;;4.83;61.54;102891.19;5038661;28;20025;-67
2023/01/28 04:26:23;;;;;;;13.68;12.27;;;;;;;4.82;61.90;102886.72;5048259;28;20090;-67
2023/01/28 04:28:49;;;;;;;15.93;12.68;;;;;;;4.82;61.81;102884.84;5048853;28;20025;-67
2023/01/28 04:31:14;;;;;;;15.70;12.63;;;;;;;4.82;61.90;102887.59;5048210;28;20068;-67
2023/01/28 04:33:39;;;;;;;14.57;12.48;;;;;;;4.81;61.39;102888.63;5031824;28;20044;-67
2023/01/28 04:36:05;;;;;;;14.65;12.93;;;;;;;4.82;61.67;102872.97;5029590;28;20032;-67
2023/01/28 04:38:30;;;;;;;14.43;12.82;;;;;;;4.82;62.02;102886.72;5044802;28;20048;-67
2023/01/28 04:40:55;;;;;;;14.90;13.18;;;;;;;4.81;61.56;102882.25;5048638;28;20025;-67
2023/01/28 04:43:21;;;;;;;16.15;13.10;;;;;;;4.78;61.64;102883.44;5049740;28;20068;-67
2023/01/28 04:45:47;;;;;;;14.50;12.52;;;;;;;4.77;61.89;102878.97;5050177;28;20082;-67
2023/01/28 04:48:13;;;;;;;15.80;13.52;;;;;;;4.72;61.92;102883.25;5032445;28;20033;-67
2023/01/28 04:50:39;;;;;;;14.15;12.63;;;;;;;4.73;62.12;102879.47;5046751;28;20061;-67
2023/01/28 04:53:04;;;;;;;15.88;13.52;;;;;;;4.71;61.76;102889.78;5049077;28;20068;-67
2023/01/28 04:55:30;;;;;;;14.93;13.30;;;;;;;4.72;62.29;102886.88;5049117;28;20529;-67
2023/01/28 04:57:55;;;;;;;15.43;13.63;;;;;;;4.66;62.29;102882.88;5051149;28;20072;-67
2023/01/28 05:00:20;;;;;;;16.67;13.40;;;;;;;4.66;62.03;102885.63;5051644;28;20041;-67
2023/01/28 05:02:46;;;;;;;15.13;12.73;;;;;;;4.67;62.42;102894.72;5050657;28;20500;-67
2023/01/28 05:05:11;;;;;;;16.13;13.43;;;;;;;4.67;62.48;102891.97;5051698;28;20064;-67
2023/01/28 05:07:37;;;;;;;16.52;13.65;;;;;;;4.67;62.35;102887.34;5050986;28;20037;-67
2023/01/28 05:10:02;;;;;;;16.70;13.52;;;;;;;4.67;62.21;102887.34;5052464;28;20025;-67
2023/01/28 05:12:29;;;;;;;13.82;12.32;;;;;;;4.66;62.24;102890.25;5052623;28;20091;-67
2023/01/28 05:14:54;;;;;;;14.65;13.05;;;;;;;4.63;62.24;102891.44;5052972;28;20476;-67
2023/01/28 05:17:19;;;;;;;15.57;13.30;;;;;;;4.60;62.22;102890.94;5049771;28;20033;-67
2023/01/28 05:19:45;;;;;;;15.15;12.82;;;;;;;4.62;62.44;102897.97;5052614;28;20387;-67
2023/01/28 05:22:10;;;;;;;17.05;13.80;;;;;;;4.66;62.59;102899.38;5041731;28;20070;-67
2023/01/28 05:24:36;;;;;;;15.82;13.18;;;;;;;4.65;62.16;102897.66;5045673;28;20438;-67
2023/01/28 05:27:01;;;;;;;14.93;12.80;;;;;;;4.62;62.43;102892.47;5049359;28;20033;-67
2023/01/28 05:29:26;;;;;;;16.02;13.23;;;;;;;4.63;62.48;102896.94;5050923;28;20028;-67
2023/01/28 05:31:51;;;;;;;15.65;13.20;;;;;;;4.58;62.29;102887.47;5050101;28;20037;-67
2023/01/28 05:34:17;;;;;;;17.50;13.95;;;;;;;4.60;62.31;102894.56;5041292;28;20049;-67
2023/01/28 05:36:42;;;;;;;15.57;13.48;;;;;;;4.60;62.95;102886.31;5050153;28;20025;-68
2023/01/28 05:39:07;;;;;;;15.27;12.80;;;;;;;4.61;62.64;102878.91;5046876;28;20049;-67
2023/01/28 05:41:33;;;;;;;15.15;13.18;;;;;;;4.63;62.53;102885.94;5047931;28;20040;-67
2023/01/28 05:43:59;;;;;;;14.55;12.85;;;;;;;4.62;62.54;102881.47;5049693;28;20822;-67
2023/01/28 05:46:24;;;;;;;15.02;12.77;;;;;;;4.62;61.94;102880.63;5050266;28;20025;-67
2023/01/28 05:48:50;;;;;;;16.10;12.95;;;;;;;4.59;62.02;102876.28;5044416;28;20381;-67
2023/01/28 05:51:15;;;;;;;15.13;13.25;;;;;;;4.61;61.68;102877.00;5043823;28;20049;-67
2023/01/28 05:53:41;;;;;;;13.88;11.93;;;;;;;4.59;61.26;102879.06;5045295;28;20603;-67
2023/01/28 05:56:06;;;;;;;13.57;11.82;;;;;;;4.60;60.65;102886.31;5046352;28;20536;-67
2023/01/28 05:58:32;;;;;;;13.18;11.63;;;;;;;4.56;60.03;102901.41;5040982;28;20047;-68
2023/01/28 06:00:57;;;;;;;13.07;10.70;;;;;;;4.58;59.38;102893.84;5045896;28;20040;-67
2023/01/28 06:03:23;;;;;;;11.32;10.23;;;;;;;4.55;59.04;102894.16;5032364;28;20033;-68
2023/01/28 06:05:48;;;;;;;12.13;10.93;;;;;;;4.52;59.22;102896.38;5034406;28;20048;-64
2023/01/28 06:08:13;;;;;;;13.98;11.68;;;;;;;4.53;58.97;102893.47;5032084;28;20528;-65
2023/01/28 06:10:39;;;;;;;11.70;10.15;;;;;;;4.55;58.78;102898.78;5034704;28;20040;-66
2023/01/28 06:13:04;;;;;;;11.98;10.68;;;;;;;4.52;59.21;102908.25;5047524;28;20033;-68
2023/01/28 06:15:29;;;;;;;11.60;10.40;;;;;;;4.50;58.55;102893.78;5049298;28;20052;-67
2023/01/28 06:17:55;;;;;;;13.25;10.85;;;;;;;4.51;57.95;102906.50;5050572;28;20472;-66
2023/01/28 06:20:20;;;;;;;12.02;10.70;;;;;;;4.50;57.83;102907.53;5050172;28;20080;-68
2023/01/28 06:22:46;;;;;;;11.15;10.02;;;;;;;4.49;57.03;102903.06;5038429;28;20659;-67
2023/01/28 06:25:11;;;;;;;12.27;10.70;;;;;;;4.50;56.84;102904.78;5041944;28;20075;-67
2023/01/28 06:27:36;;;;;;;11.57;10.48;;;;;;;4.51;56.77;102897.41;5048334;28;20036;-67
2023/01/28 06:30:02;;;;;;;11.27;10.07;;;;;;;4.51;56.93;102903.75;5052208;28;20021;-67
2023/01/28 06:32:27;;;;;;;13.35;11.40;;;;;;;4.53;56.20;102904.47;5048913;28;20025;-69
2023/01/28 06:34:53;;;;;;;13.65;11.07;;;;;;;4.54;56.36;102897.94;5050600;28;20039;-67
2023/01/28 06:37:18;;;;;;;14.57;11.90;;;;;;;4.54;56.24;102902.59;5048234;28;20083;-66
2023/01/28 06:39:44;;;;;;;15.70;11.25;;;;;;;4.52;56.50;102901.88;5043079;28;20549;-68
2023/01/28 06:42:09;;;;;;;12.57;10.88;;;;;;;4.51;56.52;102914.75;5042269;28;20041;-67
2023/01/28 06:44:34;;;;;;;12.90;11.48;;;;;;;4.50;56.79;102907.53;5050287;28;20469;-67
2023/01/28 06:47:00;;;;;;;13.07;11.68;;;;;;;4.49;56.99;102914.06;5046833;28;20032;-68
2023/01/28 06:49:25;;;;;;;13.52;11.15;;;;;;;4.53;56.51;102917.38;5049283;28;20400;-67
2023/01/28 06:51:51;;;;;;;13.60;11.25;;;;;;;4.50;56.83;102920.44;5049666;28;20718;-67
2023/01/28 06:54:16;;;;;;;13.90;12.38;;;;;;;4.50;56.37;102917.69;5049996;28;20033;-68
2023/01/28 06:56:42;;;;;;;13.15;11.18;;;;;;;4.49;56.36;102905.81;5042814;28;21512;-67
2023/01/28 06:59:07;;;;;;;13.48;11.73;;;;;;;4.47;56.78;102918.00;5044536;28;20032;-68
2023/01/28 07:01:32;;;;;;;14.60;12.02;;;;;;;4.46;56.80;102919.03;5045282;28;20033;-68
2023/01/28 07:03:58;;;;;;;13.82;12.05;;;;;;;4.48;56.31;102917.84;5050906;28;20472;-68
2023/01/28 07:06:23;;;;;;;13.70;11.75;;;;;;;4.47;56.61;102913.34;5050285;28;20059;-68
2023/01/28 07:08:48;;;;;;;14.07;11.90;;;;;;;4.48;56.52;102925.22;5044276;28;20507;-67
2023/01/28 07:11:14;;;;;;;14.65;11.70;;;;;;;4.49;56.75;102926.97;5045542;28;20491;-67
2023/01/28 07:13:40;;;;;;;14.30;12.25;;;;;;;4.43;56.71;102923.81;5037518;28;20059;-67
2023/01/28 07:16:06;;;;;;;14.65;12.13;;;;;;;4.44;56.73;102919.19;5050103;28;20464;-66
2023/01/28 07:18:32;;;;;;;15.65;13.13;;;;;;;4.43;56.81;102932.06;5050555;28;20033;-68
2023/01/28 07:20:57;;;;;;;15.45;12.70;;;;;;;4.45;56.88;102926.44;5050630;28;20029;-67
2023/01/28 07:23:23;;;;;;;17.20;13.38;;;;;;;4.45;56.83;102925.56;5050357;28;20021;-68
2023/01/28 07:25:48;;;;;;;16.50;13.63;;;;;;;4.43;57.37;102944.97;5051348;28;20338;-68
2023/01/28 07:28:19;;;;;;;16.58;13.45;;;;;;;4.45;57.31;102942.06;5047492;28;20138;-68
2023/01/28 07:30:45;;;;;;;14.75;12.57;;;;;;;4.42;56.76;102946.84;5030397;28;20590;-68
2023/01/28 07:33:10;;;;;;;13.88;11.73;;;;;;;4.42;56.26;102951.50;5051095;28;20104;-71
2023/01/28 07:35:36;;;;;;;14.65;11.98;;;;;;;4.43;56.13;102961.44;5051143;28;20408;-70
2023/01/28 07:38:01;;;;;;;14.27;12.60;;;;;;;4.44;56.32;102960.41;5049104;28;20046;-68
2023/01/28 07:40:27;;;;;;;15.23;12.40;;;;;;;4.40;55.82;102957.16;5048888;28;20566;-67
2023/01/28 07:42:54;;;;;;;14.23;12.15;;;;;;;4.39;55.45;102949.91;5049624;28;20033;-67
2023/01/28 07:45:19;;;;;;;14.13;12.27;;;;;;;4.38;55.94;102958.34;5046833;28;20135;-67
2023/01/28 07:47:52;;;;;;;15.80;12.93;;;;;;;4.37;56.14;102956.63;5049133;28;20539;-67
2023/01/28 07:50:18;;;;;;;14.95;11.98;;;;;;;4.39;55.83;102955.41;5039460;28;20041;-69
2023/01/28 07:52:44;;;;;;;17.83;12.38;;;;;;;4.38;55.51;102958.34;5046927;28;20032;-68
2023/01/28 07:55:11;;;;;;;26.00;13.05;;;;;;;4.37;56.01;102962.97;5049577;28;20059;-68
2023/01/28 07:57:37;;;;;;;14.05;12.30;;;;;;;4.35;55.81;102970.50;5047351;28;20037;-68
2023/01/28 08:00:03;;;;;;;16.05;12.30;;;;;;;4.36;55.96;102971.38;5044324;28;20491;-68
2023/01/28 08:02:29;;;;;;;15.20;12.95;;;;;;;4.35;56.08;102969.66;5043237;28;20040;-67
2023/01/28 08:04:57;;;;;;;14.65;12.38;;;;;;;4.36;56.07;102971.38;5048596;28;20103;-67
2023/01/28 08:07:23;;;;;;;15.05;12.38;;;;;;;4.34;55.89;102970.69;5046033;28;20036;-67
2023/01/28 08:09:50;;;;;;;16.58;12.65;;;;;;;4.33;56.25;102972.56;5048229;28;20041;-67
2023/01/28 08:12:15;;;;;;;15.40;12.38;;;;;;;4.32;55.93;102959.84;5047779;28;20068;-69
2023/01/28 08:14:41;;;;;;;16.85;13.10;;;;;;;4.34;56.22;102978.94;5040873;28;20489;-67
2023/01/28 08:17:06;;;;;;;16.45;12.50;;;;;;;4.33;55.56;102980.81;5048473;28;20044;-68
2023/01/28 08:19:31;;;;;;;16.10;12.55;;;;;;;4.31;55.70;102988.34;5042194;28;20096;-68
2023/01/28 08:21:57;;;;;;;15.27;12.35;;;;;;;4.32;55.71;102997.44;5030531;28;20546;-68
2023/01/28 08:24:22;;;;;;;16.92;13.15;;;;;;;4.33;55.63;102989.06;5042189;28;20033;-68
2023/01/28 08:26:47;;;;;;;16.58;13.40;;;;;;;4.33;56.03;103004.69;5032137;28;20064;-67
2023/01/28 08:29:13;;;;;;;16.90;13.00;;;;;;;4.35;55.53;103002.63;5039473;28;20464;-68
2023/01/28 08:31:38;;;;;;;15.70;12.85;;;;;;;4.33;55.31;102999.19;5033565;28;20029;-64
2023/01/28 08:34:03;;;;;;;15.55;12.82;;;;;;;4.32;55.83;103000.19;5027780;28;20061;-70
2023/01/28 08:36:29;;;;;;;15.80;13.50;;;;;;;4.32;55.64;103005.69;5039669;28;20029;-70
2023/01/28 08:38:54;;;;;;;19.90;14.07;;;;;;;4.34;55.59;103003.66;5030137;28;20050;-69
2023/01/28 08:41:23;;;;;;;17.33;14.77;;;;;;;4.36;56.13;103005.25;5047967;28;20037;-70
2023/01/28 08:43:48;;;;;;;15.80;13.63;;;;;;;4.37;55.51;103011.59;5042936;28;20050;-66
2023/01/28 08:46:14;;;;;;;16.02;13.50;;;;;;;4.35;55.90;103020.00;5041382;28;20039;-71
2023/01/28 08:48:39;;;;;;;16.10;13.35;;;;;;;4.36;55.99;103013.50;5050462;28;20041;-71
2023/01/28 08:51:05;;;;;;;17.02;13.82;;;;;;;4.36;55.77;103013.50;5054626;28;20536;-71
2023/01/28 08:53:30;;;;;;;16.30;13.25;;;;;;;4.38;55.48;103013.31;5053895;28;20032;-70
2023/01/28 08:55:56;;;;;;;17.02;13.43;;;;;;;4.41;55.13;103011.13;5052437;28;20506;-71
2023/01/28 08:58:21;;;;;;;15.20;13.05;;;;;;;4.42;55.10;103020.22;5054797;28;20040;-70
2023/01/28 09:00:47;;;;;;;16.58;12.23;;;;;;;4.41;55.58;103024.88;5054637;28;20033;-71
2023/01/28 09:03:16;;;;;;;17.52;13.63;;;;;;;4.43;55.72;103024.69;5049885;28;20033;-71
2023/01/28 09:05:44;;;;;;;14.38;12.60;;;;;;;4.41;56.12;103035.00;5053201;28;20033;-70
2023/01/28 09:08:12;;;;;;;16.55;13.05;;;;;;;4.39;55.84;103024.16;5053492;28;20048;-71
2023/01/28 09:10:38;;;;;;;15.50;13.38;;;;;;;4.41;56.32;103022.13;5054105;28;20048;-70
2023/01/28 09:13:12;;;;;;;18.08;13.40;;;;;;;4.42;56.66;103028.47;5053907;28;20134;-70
2023/01/28 09:15:38;;;;;;;16.25;13.18;;;;;;;4.44;56.34;103029.16;5053205;28;20112;-70
2023/01/28 09:18:04;;;;;;;15.63;13.40;;;;;;;4.46;55.53;103031.78;5052467;28;20112;-70
2023/01/28 09:20:33;;;;;;;16.65;13.65;;;;;;;4.45;55.72;103039.16;5045166;28;20767;-71
2023/01/28 09:23:00;;;;;;;14.80;13.18;;;;;;;4.44;55.52;103051.16;5052197;28;20547;-71
2023/01/28 09:25:25;;;;;;;15.40;13.13;;;;;;;4.46;55.68;103040.03;5052933;28;20040;-71
2023/01/28 09:27:50;;;;;;;18.42;13.93;;;;;;;4.46;55.29;103032.63;5052441;28;20098;-72
2023/01/28 09:30:16;;;;;;;17.33;13.95;;;;;;;4.47;55.44;103028.00;5051806;28;20786;-71
2023/01/28 09:32:41;;;;;;;16.23;13.48;;;;;;;4.47;55.84;103050.84;5052231;28;20445;-71
2023/01/28 09:35:07;;;;;;;16.70;13.80;;;;;;;4.47;55.69;103044.50;5051527;28;20029;-71
2023/01/28 09:37:32;;;;;;;16.67;13.75;;;;;;;4.44;55.96;103059.41;5040671;28;20595;-71
2023/01/28 09:39:57;;;;;;;18.48;14.95;;;;;;;4.45;56.08;103063.06;5051246;28;20029;-71
2023/01/28 09:42:49;;;;;;;17.33;14.57;;;;;;;4.50;56.52;103066.19;5050985;28;20080;-71
2023/01/28 09:45:32;;;;;;;19.88;15.15;;;;;;;4.49;56.73;103075.47;5051621;28;20029;-71
2023/01/28 09:48:00;;;;;;;16.38;14.57;;;;;;;4.45;55.87;103069.41;5051607;28;20083;-71
2023/01/28 09:50:33;;;;;;;16.42;14.65;;;;;;;4.45;56.12;103046.56;5051427;28;20021;-71
2023/01/28 09:53:05;;;;;;;16.38;14.30;;;;;;;4.44;56.12;103056.66;5052639;28;20039;-72
2023/01/28 09:55:34;;;;;;;16.13;14.25;;;;;;;4.42;55.56;103065.09;5044541;28;20033;-72
2023/01/28 09:58:00;;;;;;;16.25;14.32;;;;;;;4.42;55.91;103069.72;5031486;28;20033;-71
2023/01/28 10:00:41;;;;;;;16.35;14.10;;;;;;;4.43;56.25;103068.69;5032747;28;20036;-71
2023/01/28 10:03:32;;;;;;;15.30;13.70;;;;;;;4.48;56.49;103052.59;5051078;28;20052;-71
2023/01/28 10:06:19;;;;;;;17.00;13.55;;;;;;;4.45;55.87;103074.91;5047391;28;20128;-65
2023/01/28 10:09:26;;;;;;;15.73;13.95;;;;;;;4.47;56.14;103083.00;5050940;28;20067;-71
2023/01/28 10:12:13;;;;;;;15.38;13.75;;;;;;;4.42;55.35;103092.59;5023772;28;20066;-72
2023/01/28 10:14:49;;;;;;;16.38;13.88;;;;;;;4.42;55.76;103086.22;5031997;28;20029;-73
2023/01/28 10:17:39;;;;;;;15.48;13.13;;;;;;;4.45;56.08;103090.56;5038603;28;20037;-74
2023/01/28 10:20:19;;;;;;;15.55;13.30;;;;;;;4.46;55.88;103089.53;5044926;28;20048;-72
2023/01/28 10:23:46;;;;;;;15.88;13.57;;;;;;;4.48;55.85;103090.22;5046115;28;20503;-72
2023/01/28 10:26:33;;;;;;;14.57;13.07;;;;;;;4.44;55.89;103089.66;4987532;28;20121;-71
2023/01/28 10:29:15;;;;;;;15.32;13.20;;;;;;;4.42;55.74;103102.72;4974307;28;20034;-73
2023/01/28 10:31:51;;;;;;;16.42;13.55;;;;;;;4.39;55.45;103090.16;5026565;28;20128;-71
2023/01/28 10:34:16;;;;;;;17.15;13.60;;;;;;;4.37;55.62;103089.44;5036817;28;20022;-76
2023/01/28 10:36:42;;;;;;;15.07;13.02;;;;;;;4.31;55.10;103084.56;5044896;28;20391;-75
2023/01/28 10:39:12;;;;;;;14.73;13.20;;;;;;;4.32;55.22;103083.56;5046684;28;20118;-71
2023/01/28 10:41:39;;;;;;;15.05;13.00;;;;;;;4.34;55.56;103088.91;5047267;28;20120;-72
2023/01/28 10:44:04;;;;;;;14.85;12.77;;;;;;;4.32;55.53;103083.56;5040719;28;20556;-69
2023/01/28 10:46:34;;;;;;;16.80;13.32;;;;;;;4.31;55.90;103083.72;5037236;28;20037;-68
2023/01/28 10:49:18;;;;;;;14.45;12.45;;;;;;;4.34;55.56;103077.91;5037060;28;20078;-68
2023/01/28 10:51:43;;;;;;;15.57;12.68;;;;;;;4.30;55.58;103079.25;5038811;28;20037;-69
2023/01/28 10:54:26;;;;;;;15.70;12.93;;;;;;;4.35;56.06;103074.13;5041588;28;21925;-70
2023/01/28 10:56:59;;;;;;;15.48;13.10;;;;;;;4.33;55.88;103076.19;5036308;28;20039;-69
2023/01/28 10:59:26;;;;;;;15.27;12.38;;;;;;;4.30;55.61;103074.59;5034616;28;20063;-72
2023/01/28 11:01:54;;;;;;;13.90;12.00;;;;;;;4.30;55.57;103068.25;5038840;28;20078;-63
2023/01/28 11:04:32;;;;;;;14.13;11.88;;;;;;;4.34;56.23;103077.91;5039491;28;20426;-70
2023/01/28 11:07:16;;;;;;;14.20;12.60;;;;;;;4.35;56.24;103082.38;5037213;28;20033;-73
2023/01/28 11:09:48;;;;;;;15.07;12.35;;;;;;;4.32;56.32;103074.44;5036824;28;20058;-72
2023/01/28 11:12:25;;;;;;;17.58;13.55;;;;;;;4.31;56.21;103083.72;5039619;28;20132;-75
2023/01/28 11:14:53;;;;;;;18.08;12.73;;;;;;;4.29;56.60;103074.78;5033819;28;20041;-73
2023/01/28 11:17:23;;;;;;;16.83;12.82;;;;;;;4.31;56.61;103065.31;5036633;28;20025;-71
2023/01/28 11:19:51;;;;;;;17.50;13.18;;;;;;;4.30;56.84;103066.34;5039331;28;20492;-71
2023/01/28 11:22:31;;;;;;;20.17;13.77;;;;;;;4.33;56.33;103056.94;5039535;28;20120;-72
2023/01/28 11:24:57;;;;;;;19.42;13.55;;;;;;;4.31;56.59;103068.06;5038772;28;20396;-73
2023/01/28 11:27:29;;;;;;;20.85;13.45;;;;;;;4.32;57.14;103064.31;5038772;28;20024;-70
2023/01/28 11:30:03;;;;;;;19.10;14.20;;;;;;;4.35;55.99;103057.63;5038719;28;20506;-65
2023/01/28 11:32:30;;;;;;;16.77;13.02;;;;;;;4.31;56.26;103045.22;5035353;28;20035;-73
2023/01/28 11:34:56;;;;;;;17.38;13.15;;;;;;;4.30;56.10;103033.38;5037601;28;20669;-73
2023/01/28 11:37:24;;;;;;;14.10;12.40;;;;;;;4.32;56.01;103036.84;5038923;28;20035;-76
2023/01/28 11:40:03;;;;;;;14.88;11.70;;;;;;;4.36;56.40;103042.84;5036696;28;20486;-75
2023/01/28 11:42:29;;;;;;;14.50;12.05;;;;;;;4.34;55.72;103040.28;5036992;28;20037;-76
2023/01/28 11:44:54;;;;;;;13.73;11.80;;;;;;;4.38;55.89;103024.31;5042420;28;20027;-76
2023/01/28 11:47:47;;;;;;;17.10;11.63;;;;;;;4.43;56.30;103033.81;5042785;28;20067;-73
2023/01/28 11:50:24;;;;;;;14.30;12.65;;;;;;;4.43;56.30;103017.31;5041610;28;20111;-70
2023/01/28 11:52:52;;;;;;;14.55;12.20;;;;;;;4.41;56.83;103002.88;5038661;28;20936;-70
2023/01/28 11:55:17;;;;;;;16.75;13.50;;;;;;;4.41;56.14;103002.00;5043511;28;20029;-71
2023/01/28 11:57:54;;;;;;;15.07;12.25;;;;;;;4.42;56.54;102988.09;5037818;28;20392;-67
2023/01/28 12:00:35;;;;;;;15.40;13.48;;;;;;;4.46;56.57;102974.03;5038960;28;20041;-71